sensor_id;sensor_type;location;lat;lon;timestamp;P1;durP1;ratioP1;P2;durP2;ratioP2
14187;SDS011;7175;51.978;5.330;2022-12-11T00:00:53;103.00;;;95.60;;
14187;SDS011;7175;51.978;5.330;2022-12-11T00:03:21;100.00;;;93.00;;
14187;SDS011;7175;51.978;5.330;2022-12-11T00:05:49;107.17;;;99.37;;
14187;SDS011;7175;51.978;5.330;2022-12-11T00:08:17;108.77;;;101.37;;
14187;SDS011;7175;51.978;5.330;2022-12-11T00:10:46;105.43;;;98.23;;
14187;SDS011;7175;51.978;5.330;2022-12-11T00:13:16;101.43;;;94.43;;
14187;SDS011;7175;51.978;5.330;2022-12-11T00:15:44;100.63;;;93.83;;
14187;SDS011;7175;51.978;5.330;2022-12-11T00:18:12;102.70;;;95.60;;
14187;SDS011;7175;51.978;5.330;2022-12-11T00:20:40;106.13;;;98.93;;
14187;SDS011;7175;51.978;5.330;2022-12-11T00:23:08;102.30;;;95.30;;
14187;SDS011;7175;51.978;5.330;2022-12-11T00:25:39;100.13;;;93.33;;
14187;SDS011;7175;51.978;5.330;2022-12-11T00:28:07;102.37;;;95.43;;
14187;SDS011;7175;51.978;5.330;2022-12-11T00:30:38;103.50;;;96.50;;
14187;SDS011;7175;51.978;5.330;2022-12-11T00:33:07;99.47;;;92.57;;
14187;SDS011;7175;51.978;5.330;2022-12-11T00:35:36;102.77;;;95.77;;
14187;SDS011;7175;51.978;5.330;2022-12-11T00:38:05;103.50;;;96.40;;
14187;SDS011;7175;51.978;5.330;2022-12-11T00:40:33;106.73;;;99.53;;
14187;SDS011;7175;51.978;5.330;2022-12-11T00:43:02;108.20;;;100.90;;
14187;SDS011;7175;51.978;5.330;2022-12-11T00:45:30;104.90;;;97.80;;
14187;SDS011;7175;51.978;5.330;2022-12-11T00:48:03;108.43;;;100.72;;
14187;SDS011;7175;51.978;5.330;2022-12-11T00:50:32;105.20;;;98.00;;
14187;SDS011;7175;51.978;5.330;2022-12-11T00:53:00;106.07;;;98.87;;
14187;SDS011;7175;51.978;5.330;2022-12-11T00:55:29;109.37;;;101.43;;
14187;SDS011;7175;51.978;5.330;2022-12-11T00:57:57;108.03;;;100.73;;
14187;SDS011;7175;51.978;5.330;2022-12-11T01:00:26;103.33;;;96.20;;
14187;SDS011;7175;51.978;5.330;2022-12-11T01:02:54;101.90;;;94.70;;
14187;SDS011;7175;51.978;5.330;2022-12-11T01:05:23;103.73;;;96.63;;
14187;SDS011;7175;51.978;5.330;2022-12-11T01:07:52;104.60;;;97.50;;
14187;SDS011;7175;51.978;5.330;2022-12-11T01:10:20;104.57;;;97.47;;
14187;SDS011;7175;51.978;5.330;2022-12-11T01:12:50;105.70;;;98.50;;
14187;SDS011;7175;51.978;5.330;2022-12-11T01:15:19;102.40;;;95.40;;
14187;SDS011;7175;51.978;5.330;2022-12-11T01:17:49;104.17;;;96.67;;
14187;SDS011;7175;51.978;5.330;2022-12-11T01:20:18;103.37;;;96.27;;
14187;SDS011;7175;51.978;5.330;2022-12-11T01:22:49;103.00;;;96.00;;
14187;SDS011;7175;51.978;5.330;2022-12-11T01:25:19;106.10;;;98.70;;
14187;SDS011;7175;51.978;5.330;2022-12-11T01:27:48;103.37;;;96.27;;
14187;SDS011;7175;51.978;5.330;2022-12-11T01:30:18;106.07;;;98.67;;
14187;SDS011;7175;51.978;5.330;2022-12-11T01:32:48;104.20;;;96.90;;
14187;SDS011;7175;51.978;5.330;2022-12-11T01:35:17;102.67;;;95.53;;
14187;SDS011;7175;51.978;5.330;2022-12-11T01:37:46;106.07;;;98.87;;
14187;SDS011;7175;51.978;5.330;2022-12-11T01:40:16;104.93;;;97.63;;
14187;SDS011;7175;51.978;5.330;2022-12-11T01:42:45;104.30;;;97.10;;
14187;SDS011;7175;51.978;5.330;2022-12-11T01:48:06;103.97;;;96.77;;
14187;SDS011;7175;51.978;5.330;2022-12-11T01:50:38;105.60;;;98.33;;
14187;SDS011;7175;51.978;5.330;2022-12-11T01:53:11;111.00;;;103.40;;
14187;SDS011;7175;51.978;5.330;2022-12-11T01:55:45;105.93;;;98.73;;
14187;SDS011;7175;51.978;5.330;2022-12-11T01:58:16;105.20;;;97.90;;
14187;SDS011;7175;51.978;5.330;2022-12-11T02:00:45;107.80;;;100.40;;
14187;SDS011;7175;51.978;5.330;2022-12-11T02:03:14;106.60;;;99.23;;
14187;SDS011;7175;51.978;5.330;2022-12-11T02:05:43;108.80;;;101.40;;
14187;SDS011;7175;51.978;5.330;2022-12-11T02:08:11;111.50;;;104.00;;
14187;SDS011;7175;51.978;5.330;2022-12-11T02:10:47;108.50;;;101.10;;
14187;SDS011;7175;51.978;5.330;2022-12-11T02:13:23;108.30;;;100.90;;
14187;SDS011;7175;51.978;5.330;2022-12-11T02:15:56;109.70;;;102.03;;
14187;SDS011;7175;51.978;5.330;2022-12-11T02:18:29;109.67;;;102.23;;
14187;SDS011;7175;51.978;5.330;2022-12-11T02:21:02;111.27;;;103.67;;
14187;SDS011;7175;51.978;5.330;2022-12-11T02:23:52;117.50;;;109.53;;
14187;SDS011;7175;51.978;5.330;2022-12-11T02:26:51;112.87;;;105.23;;
14187;SDS011;7175;51.978;5.330;2022-12-11T02:29:32;112.00;;;104.40;;
14187;SDS011;7175;51.978;5.330;2022-12-11T02:32:03;113.03;;;105.47;;
14187;SDS011;7175;51.978;5.330;2022-12-11T02:34:38;111.10;;;103.63;;
14187;SDS011;7175;51.978;5.330;2022-12-11T02:37:10;114.73;;;106.93;;
14187;SDS011;7175;51.978;5.330;2022-12-11T02:39:41;112.37;;;104.77;;
14187;SDS011;7175;51.978;5.330;2022-12-11T02:42:11;110.50;;;103.07;;
14187;SDS011;7175;51.978;5.330;2022-12-11T02:44:43;112.03;;;104.20;;
14187;SDS011;7175;51.978;5.330;2022-12-11T02:47:13;111.83;;;104.20;;
14187;SDS011;7175;51.978;5.330;2022-12-11T02:49:43;109.17;;;101.80;;
14187;SDS011;7175;51.978;5.330;2022-12-11T02:52:14;109.60;;;102.30;;
14187;SDS011;7175;51.978;5.330;2022-12-11T02:54:45;108.10;;;100.90;;
14187;SDS011;7175;51.978;5.330;2022-12-11T02:57:18;109.07;;;101.73;;
14187;SDS011;7175;51.978;5.330;2022-12-11T02:59:53;111.67;;;104.17;;
14187;SDS011;7175;51.978;5.330;2022-12-11T03:02:21;113.47;;;105.97;;
14187;SDS011;7175;51.978;5.330;2022-12-11T03:04:49;111.80;;;104.40;;
14187;SDS011;7175;51.978;5.330;2022-12-11T03:07:19;105.73;;;98.60;;
14187;SDS011;7175;51.978;5.330;2022-12-11T03:09:51;109.47;;;102.07;;
14187;SDS011;7175;51.978;5.330;2022-12-11T03:12:20;107.33;;;100.13;;
14187;SDS011;7175;51.978;5.330;2022-12-11T03:14:55;106.43;;;99.27;;
14187;SDS011;7175;51.978;5.330;2022-12-11T03:17:27;108.03;;;100.83;;
14187;SDS011;7175;51.978;5.330;2022-12-11T03:20:02;102.87;;;95.73;;
14187;SDS011;7175;51.978;5.330;2022-12-11T03:22:38;108.23;;;100.93;;
14187;SDS011;7175;51.978;5.330;2022-12-11T03:25:11;109.90;;;102.40;;
14187;SDS011;7175;51.978;5.330;2022-12-11T03:27:44;107.90;;;100.60;;
14187;SDS011;7175;51.978;5.330;2022-12-11T03:30:19;112.53;;;104.93;;
14187;SDS011;7175;51.978;5.330;2022-12-11T03:32:50;110.03;;;102.57;;
14187;SDS011;7175;51.978;5.330;2022-12-11T03:35:23;104.00;;;96.77;;
14187;SDS011;7175;51.978;5.330;2022-12-11T03:37:55;106.77;;;99.27;;
14187;SDS011;7175;51.978;5.330;2022-12-11T03:40:28;108.60;;;101.20;;
14187;SDS011;7175;51.978;5.330;2022-12-11T03:42:59;111.90;;;104.20;;
14187;SDS011;7175;51.978;5.330;2022-12-11T03:45:30;112.73;;;105.13;;
14187;SDS011;7175;51.978;5.330;2022-12-11T03:48:00;106.80;;;99.53;;
14187;SDS011;7175;51.978;5.330;2022-12-11T03:50:30;108.13;;;100.73;;
14187;SDS011;7175;51.978;5.330;2022-12-11T03:52:59;105.87;;;98.40;;
14187;SDS011;7175;51.978;5.330;2022-12-11T03:55:28;110.33;;;102.87;;
14187;SDS011;7175;51.978;5.330;2022-12-11T03:57:59;110.83;;;103.33;;
14187;SDS011;7175;51.978;5.330;2022-12-11T04:00:27;107.83;;;100.50;;
14187;SDS011;7175;51.978;5.330;2022-12-11T04:02:57;108.27;;;100.87;;
14187;SDS011;7175;51.978;5.330;2022-12-11T04:05:42;106.13;;;98.73;;
14187;SDS011;7175;51.978;5.330;2022-12-11T04:08:12;105.03;;;97.63;;
14187;SDS011;7175;51.978;5.330;2022-12-11T04:10:41;106.40;;;99.20;;
14187;SDS011;7175;51.978;5.330;2022-12-11T04:13:09;107.63;;;100.33;;
14187;SDS011;7175;51.978;5.330;2022-12-11T04:15:38;103.43;;;96.33;;
14187;SDS011;7175;51.978;5.330;2022-12-11T04:18:07;107.30;;;99.90;;
14187;SDS011;7175;51.978;5.330;2022-12-11T04:20:54;106.60;;;99.30;;
14187;SDS011;7175;51.978;5.330;2022-12-11T04:23:40;106.97;;;99.67;;
14187;SDS011;7175;51.978;5.330;2022-12-11T04:26:25;109.53;;;102.23;;
14187;SDS011;7175;51.978;5.330;2022-12-11T04:28:54;106.63;;;99.33;;
14187;SDS011;7175;51.978;5.330;2022-12-11T04:31:24;107.53;;;100.23;;
14187;SDS011;7175;51.978;5.330;2022-12-11T04:33:55;108.83;;;101.43;;
14187;SDS011;7175;51.978;5.330;2022-12-11T04:36:23;110.70;;;103.20;;
14187;SDS011;7175;51.978;5.330;2022-12-11T04:38:51;106.80;;;99.40;;
14187;SDS011;7175;51.978;5.330;2022-12-11T04:41:19;107.50;;;100.10;;
14187;SDS011;7175;51.978;5.330;2022-12-11T04:43:48;110.97;;;103.10;;
14187;SDS011;7175;51.978;5.330;2022-12-11T04:46:17;106.20;;;98.90;;
14187;SDS011;7175;51.978;5.330;2022-12-11T04:48:47;108.30;;;101.00;;
14187;SDS011;7175;51.978;5.330;2022-12-11T04:51:24;105.70;;;98.60;;
14187;SDS011;7175;51.978;5.330;2022-12-11T04:53:52;104.57;;;97.57;;
14187;SDS011;7175;51.978;5.330;2022-12-11T04:56:20;102.43;;;95.53;;
14187;SDS011;7175;51.978;5.330;2022-12-11T04:58:49;104.33;;;97.43;;
14187;SDS011;7175;51.978;5.330;2022-12-11T05:01:17;106.10;;;99.20;;
14187;SDS011;7175;51.978;5.330;2022-12-11T05:03:46;108.43;;;101.23;;
14187;SDS011;7175;51.978;5.330;2022-12-11T05:06:14;105.37;;;98.47;;
14187;SDS011;7175;51.978;5.330;2022-12-11T05:08:44;103.43;;;96.43;;
14187;SDS011;7175;51.978;5.330;2022-12-11T05:11:13;100.73;;;93.93;;
14187;SDS011;7175;51.978;5.330;2022-12-11T05:13:42;103.10;;;96.30;;
14187;SDS011;7175;51.978;5.330;2022-12-11T05:16:12;105.73;;;98.73;;
14187;SDS011;7175;51.978;5.330;2022-12-11T05:18:41;103.97;;;97.07;;
14187;SDS011;7175;51.978;5.330;2022-12-11T05:21:10;103.70;;;96.80;;
14187;SDS011;7175;51.978;5.330;2022-12-11T05:23:39;100.13;;;93.33;;
14187;SDS011;7175;51.978;5.330;2022-12-11T05:26:11;101.93;;;95.07;;
14187;SDS011;7175;51.978;5.330;2022-12-11T05:28:41;105.57;;;98.57;;
14187;SDS011;7175;51.978;5.330;2022-12-11T05:31:11;105.07;;;98.17;;
14187;SDS011;7175;51.978;5.330;2022-12-11T05:33:41;102.60;;;95.80;;
14187;SDS011;7175;51.978;5.330;2022-12-11T05:36:12;99.47;;;92.87;;
14187;SDS011;7175;51.978;5.330;2022-12-11T05:38:42;97.07;;;90.57;;
14187;SDS011;7175;51.978;5.330;2022-12-11T05:41:14;98.43;;;91.83;;
14187;SDS011;7175;51.978;5.330;2022-12-11T05:43:43;100.63;;;94.10;;
14187;SDS011;7175;51.978;5.330;2022-12-11T05:46:12;101.07;;;94.57;;
14187;SDS011;7175;51.978;5.330;2022-12-11T05:48:43;99.00;;;92.57;;
14187;SDS011;7175;51.978;5.330;2022-12-11T05:51:14;100.80;;;94.20;;
14187;SDS011;7175;51.978;5.330;2022-12-11T05:53:44;98.60;;;92.10;;
14187;SDS011;7175;51.978;5.330;2022-12-11T05:56:15;98.67;;;92.07;;
14187;SDS011;7175;51.978;5.330;2022-12-11T05:58:45;100.00;;;93.50;;
14187;SDS011;7175;51.978;5.330;2022-12-11T06:01:15;99.50;;;93.00;;
14187;SDS011;7175;51.978;5.330;2022-12-11T06:03:45;101.77;;;95.07;;
14187;SDS011;7175;51.978;5.330;2022-12-11T06:06:13;101.23;;;94.63;;
14187;SDS011;7175;51.978;5.330;2022-12-11T06:08:42;97.97;;;91.57;;
14187;SDS011;7175;51.978;5.330;2022-12-11T06:11:10;98.20;;;91.77;;
14187;SDS011;7175;51.978;5.330;2022-12-11T06:13:40;96.00;;;89.70;;
14187;SDS011;7175;51.978;5.330;2022-12-11T06:16:08;94.37;;;88.17;;
14187;SDS011;7175;51.978;5.330;2022-12-11T06:18:38;94.77;;;88.47;;
14187;SDS011;7175;51.978;5.330;2022-12-11T06:21:11;93.63;;;87.33;;
14187;SDS011;7175;51.978;5.330;2022-12-11T06:23:40;91.90;;;85.70;;
14187;SDS011;7175;51.978;5.330;2022-12-11T06:26:09;91.50;;;85.37;;
14187;SDS011;7175;51.978;5.330;2022-12-11T06:28:38;91.90;;;85.70;;
14187;SDS011;7175;51.978;5.330;2022-12-11T06:31:08;94.33;;;88.03;;
14187;SDS011;7175;51.978;5.330;2022-12-11T06:33:37;92.73;;;86.53;;
14187;SDS011;7175;51.978;5.330;2022-12-11T06:36:06;94.57;;;88.37;;
14187;SDS011;7175;51.978;5.330;2022-12-11T06:38:36;94.23;;;88.13;;
14187;SDS011;7175;51.978;5.330;2022-12-11T06:41:04;97.50;;;90.50;;
14187;SDS011;7175;51.978;5.330;2022-12-11T06:43:35;94.10;;;88.10;;
14187;SDS011;7175;51.978;5.330;2022-12-11T06:46:06;90.63;;;84.80;;
14187;SDS011;7175;51.978;5.330;2022-12-11T06:48:36;88.97;;;83.27;;
14187;SDS011;7175;51.978;5.330;2022-12-11T06:51:04;90.37;;;84.60;;
14187;SDS011;7175;51.978;5.330;2022-12-11T06:53:33;91.80;;;85.90;;
14187;SDS011;7175;51.978;5.330;2022-12-11T06:56:02;89.50;;;83.70;;
14187;SDS011;7175;51.978;5.330;2022-12-11T06:58:32;88.87;;;83.10;;
14187;SDS011;7175;51.978;5.330;2022-12-11T07:01:01;91.97;;;85.87;;
14187;SDS011;7175;51.978;5.330;2022-12-11T07:03:31;87.13;;;81.53;;
14187;SDS011;7175;51.978;5.330;2022-12-11T07:05:59;85.70;;;80.10;;
14187;SDS011;7175;51.978;5.330;2022-12-11T07:08:28;87.73;;;82.03;;
14187;SDS011;7175;51.978;5.330;2022-12-11T07:11:01;85.80;;;80.30;;
14187;SDS011;7175;51.978;5.330;2022-12-11T07:13:30;90.97;;;85.07;;
14187;SDS011;7175;51.978;5.330;2022-12-11T07:15:59;89.23;;;83.53;;
14187;SDS011;7175;51.978;5.330;2022-12-11T07:18:27;89.90;;;84.10;;
14187;SDS011;7175;51.978;5.330;2022-12-11T07:20:57;87.90;;;82.27;;
14187;SDS011;7175;51.978;5.330;2022-12-11T07:23:26;87.37;;;81.87;;
14187;SDS011;7175;51.978;5.330;2022-12-11T07:25:55;85.93;;;80.43;;
14187;SDS011;7175;51.978;5.330;2022-12-11T07:28:24;88.20;;;82.60;;
14187;SDS011;7175;51.978;5.330;2022-12-11T07:30:52;87.90;;;82.30;;
14187;SDS011;7175;51.978;5.330;2022-12-11T07:33:20;86.40;;;80.90;;
14187;SDS011;7175;51.978;5.330;2022-12-11T07:35:48;87.90;;;82.30;;
14187;SDS011;7175;51.978;5.330;2022-12-11T07:38:18;87.30;;;81.87;;
14187;SDS011;7175;51.978;5.330;2022-12-11T07:40:46;85.80;;;80.20;;
14187;SDS011;7175;51.978;5.330;2022-12-11T07:43:14;81.10;;;75.80;;
14187;SDS011;7175;51.978;5.330;2022-12-11T07:45:42;78.07;;;72.77;;
14187;SDS011;7175;51.978;5.330;2022-12-11T07:48:12;79.20;;;73.80;;
14187;SDS011;7175;51.978;5.330;2022-12-11T07:50:40;80.30;;;74.70;;
14187;SDS011;7175;51.978;5.330;2022-12-11T07:53:08;82.23;;;76.53;;
14187;SDS011;7175;51.978;5.330;2022-12-11T07:55:38;79.63;;;74.13;;
14187;SDS011;7175;51.978;5.330;2022-12-11T07:58:07;79.40;;;73.80;;
14187;SDS011;7175;51.978;5.330;2022-12-11T08:00:35;81.47;;;75.87;;
14187;SDS011;7175;51.978;5.330;2022-12-11T08:03:03;84.67;;;79.07;;
14187;SDS011;7175;51.978;5.330;2022-12-11T08:05:31;84.30;;;78.83;;
14187;SDS011;7175;51.978;5.330;2022-12-11T08:07:59;84.00;;;78.13;;
14187;SDS011;7175;51.978;5.330;2022-12-11T08:10:27;82.57;;;76.90;;
14187;SDS011;7175;51.978;5.330;2022-12-11T08:12:57;82.47;;;77.03;;
14187;SDS011;7175;51.978;5.330;2022-12-11T08:15:25;79.10;;;73.80;;
14187;SDS011;7175;51.978;5.330;2022-12-11T08:17:53;79.90;;;74.50;;
14187;SDS011;7175;51.978;5.330;2022-12-11T08:20:21;82.10;;;76.70;;
14187;SDS011;7175;51.978;5.330;2022-12-11T08:22:49;80.60;;;75.10;;
14187;SDS011;7175;51.978;5.330;2022-12-11T08:25:24;80.87;;;75.40;;
14187;SDS011;7175;51.978;5.330;2022-12-11T08:27:52;81.20;;;75.70;;
14187;SDS011;7175;51.978;5.330;2022-12-11T08:30:22;85.30;;;79.60;;
14187;SDS011;7175;51.978;5.330;2022-12-11T08:32:50;84.77;;;79.07;;
14187;SDS011;7175;51.978;5.330;2022-12-11T08:35:18;83.57;;;77.93;;
14187;SDS011;7175;51.978;5.330;2022-12-11T08:37:46;83.33;;;77.63;;
14187;SDS011;7175;51.978;5.330;2022-12-11T08:40:14;80.33;;;74.70;;
14187;SDS011;7175;51.978;5.330;2022-12-11T08:42:42;83.80;;;78.10;;
14187;SDS011;7175;51.978;5.330;2022-12-11T08:45:10;85.27;;;79.47;;
14187;SDS011;7175;51.978;5.330;2022-12-11T08:47:40;84.67;;;78.77;;
14187;SDS011;7175;51.978;5.330;2022-12-11T08:50:09;82.53;;;76.83;;
14187;SDS011;7175;51.978;5.330;2022-12-11T08:52:37;85.07;;;79.30;;
14187;SDS011;7175;51.978;5.330;2022-12-11T08:55:05;82.60;;;76.90;;
14187;SDS011;7175;51.978;5.330;2022-12-11T08:57:34;80.20;;;74.70;;
14187;SDS011;7175;51.978;5.330;2022-12-11T09:00:05;79.00;;;73.50;;
14187;SDS011;7175;51.978;5.330;2022-12-11T09:02:35;78.20;;;72.80;;
14187;SDS011;7175;51.978;5.330;2022-12-11T09:05:05;74.10;;;69.00;;
14187;SDS011;7175;51.978;5.330;2022-12-11T09:07:35;73.57;;;68.47;;
14187;SDS011;7175;51.978;5.330;2022-12-11T09:10:05;75.20;;;70.00;;
14187;SDS011;7175;51.978;5.330;2022-12-11T09:12:35;75.50;;;70.30;;
14187;SDS011;7175;51.978;5.330;2022-12-11T09:15:04;75.80;;;70.50;;
14187;SDS011;7175;51.978;5.330;2022-12-11T09:17:33;76.10;;;70.80;;
14187;SDS011;7175;51.978;5.330;2022-12-11T09:20:01;76.40;;;71.20;;
14187;SDS011;7175;51.978;5.330;2022-12-11T09:22:32;71.77;;;66.77;;
14187;SDS011;7175;51.978;5.330;2022-12-11T09:25:00;73.37;;;67.90;;
14187;SDS011;7175;51.978;5.330;2022-12-11T09:27:28;73.30;;;68.20;;
14187;SDS011;7175;51.978;5.330;2022-12-11T09:29:56;74.50;;;69.40;;
14187;SDS011;7175;51.978;5.330;2022-12-11T09:32:24;74.10;;;69.00;;
14187;SDS011;7175;51.978;5.330;2022-12-11T09:34:52;71.70;;;66.70;;
14187;SDS011;7175;51.978;5.330;2022-12-11T09:37:20;71.10;;;66.07;;
14187;SDS011;7175;51.978;5.330;2022-12-11T09:39:50;71.50;;;66.57;;
14187;SDS011;7175;51.978;5.330;2022-12-11T09:42:19;75.70;;;70.60;;
14187;SDS011;7175;51.978;5.330;2022-12-11T09:44:53;74.37;;;69.27;;
14187;SDS011;7175;51.978;5.330;2022-12-11T09:47:31;69.17;;;64.27;;
14187;SDS011;7175;51.978;5.330;2022-12-11T09:50:03;71.33;;;66.43;;
14187;SDS011;7175;51.978;5.330;2022-12-11T09:52:41;69.50;;;64.60;;
14187;SDS011;7175;51.978;5.330;2022-12-11T09:55:24;66.73;;;62.00;;
14187;SDS011;7175;51.978;5.330;2022-12-11T09:57:58;67.53;;;62.73;;
14187;SDS011;7175;51.978;5.330;2022-12-11T10:00:35;67.60;;;62.90;;
14187;SDS011;7175;51.978;5.330;2022-12-11T10:03:16;69.00;;;64.07;;
14187;SDS011;7175;51.978;5.330;2022-12-11T10:06:04;65.53;;;60.83;;
14187;SDS011;7175;51.978;5.330;2022-12-11T10:08:43;66.90;;;62.10;;
14187;SDS011;7175;51.978;5.330;2022-12-11T10:11:25;64.43;;;59.73;;
14187;SDS011;7175;51.978;5.330;2022-12-11T10:14:07;64.30;;;59.60;;
14187;SDS011;7175;51.978;5.330;2022-12-11T10:16:42;65.50;;;60.80;;
14187;SDS011;7175;51.978;5.330;2022-12-11T10:19:13;64.40;;;59.70;;
14187;SDS011;7175;51.978;5.330;2022-12-11T10:21:44;64.80;;;60.10;;
14187;SDS011;7175;51.978;5.330;2022-12-11T10:24:16;64.10;;;59.40;;
14187;SDS011;7175;51.978;5.330;2022-12-11T10:27:13;65.03;;;60.23;;
14187;SDS011;7175;51.978;5.330;2022-12-11T10:29:44;64.40;;;59.70;;
14187;SDS011;7175;51.978;5.330;2022-12-11T10:32:15;66.20;;;61.40;;
14187;SDS011;7175;51.978;5.330;2022-12-11T10:34:49;65.50;;;60.80;;
14187;SDS011;7175;51.978;5.330;2022-12-11T10:37:23;65.20;;;60.40;;
14187;SDS011;7175;51.978;5.330;2022-12-11T10:39:51;65.10;;;60.30;;
14187;SDS011;7175;51.978;5.330;2022-12-11T10:42:21;65.97;;;61.17;;
14187;SDS011;7175;51.978;5.330;2022-12-11T10:44:57;66.60;;;61.80;;
14187;SDS011;7175;51.978;5.330;2022-12-11T10:47:27;64.83;;;60.13;;
14187;SDS011;7175;51.978;5.330;2022-12-11T10:49:56;67.63;;;62.43;;
14187;SDS011;7175;51.978;5.330;2022-12-11T10:52:26;66.43;;;61.63;;
14187;SDS011;7175;51.978;5.330;2022-12-11T10:54:58;67.57;;;62.87;;
14187;SDS011;7175;51.978;5.330;2022-12-11T10:57:31;66.47;;;61.67;;
14187;SDS011;7175;51.978;5.330;2022-12-11T11:00:00;64.90;;;60.20;;
14187;SDS011;7175;51.978;5.330;2022-12-11T11:02:32;65.07;;;60.37;;
14187;SDS011;7175;51.978;5.330;2022-12-11T11:05:09;63.73;;;59.13;;
14187;SDS011;7175;51.978;5.330;2022-12-11T11:07:39;62.30;;;57.90;;
14187;SDS011;7175;51.978;5.330;2022-12-11T11:10:13;62.00;;;57.60;;
14187;SDS011;7175;51.978;5.330;2022-12-11T11:12:46;64.17;;;59.60;;
14187;SDS011;7175;51.978;5.330;2022-12-11T11:15:17;62.30;;;57.80;;
14187;SDS011;7175;51.978;5.330;2022-12-11T11:17:46;64.87;;;59.63;;
14187;SDS011;7175;51.978;5.330;2022-12-11T11:20:22;65.70;;;61.00;;
14187;SDS011;7175;51.978;5.330;2022-12-11T11:22:52;65.57;;;60.87;;
14187;SDS011;7175;51.978;5.330;2022-12-11T11:25:23;65.30;;;60.60;;
14187;SDS011;7175;51.978;5.330;2022-12-11T11:27:55;65.87;;;61.17;;
14187;SDS011;7175;51.978;5.330;2022-12-11T11:30:26;65.80;;;61.10;;
14187;SDS011;7175;51.978;5.330;2022-12-11T11:32:56;69.00;;;64.10;;
14187;SDS011;7175;51.978;5.330;2022-12-11T11:35:28;67.90;;;63.00;;
14187;SDS011;7175;51.978;5.330;2022-12-11T11:38:00;66.00;;;61.20;;
14187;SDS011;7175;51.978;5.330;2022-12-11T11:40:32;66.53;;;61.83;;
14187;SDS011;7175;51.978;5.330;2022-12-11T11:43:09;67.50;;;62.80;;
14187;SDS011;7175;51.978;5.330;2022-12-11T11:45:45;66.40;;;61.80;;
14187;SDS011;7175;51.978;5.330;2022-12-11T11:48:23;65.10;;;60.50;;
14187;SDS011;7175;51.978;5.330;2022-12-11T11:51:00;62.83;;;58.43;;
14187;SDS011;7175;51.978;5.330;2022-12-11T11:53:40;63.37;;;58.87;;
14187;SDS011;7175;51.978;5.330;2022-12-11T11:56:15;63.80;;;59.30;;
14187;SDS011;7175;51.978;5.330;2022-12-11T11:58:51;63.67;;;59.07;;
14187;SDS011;7175;51.978;5.330;2022-12-11T12:01:24;63.53;;;59.07;;
14187;SDS011;7175;51.978;5.330;2022-12-11T12:03:53;63.67;;;59.17;;
14187;SDS011;7175;51.978;5.330;2022-12-11T12:06:27;65.90;;;61.30;;
14187;SDS011;7175;51.978;5.330;2022-12-11T12:09:09;65.67;;;61.07;;
14187;SDS011;7175;51.978;5.330;2022-12-11T12:11:48;64.80;;;60.20;;
14187;SDS011;7175;51.978;5.330;2022-12-11T12:14:23;61.00;;;56.70;;
14187;SDS011;7175;51.978;5.330;2022-12-11T12:17:16;61.87;;;57.57;;
14187;SDS011;7175;51.978;5.330;2022-12-11T12:19:50;60.33;;;56.03;;
14187;SDS011;7175;51.978;5.330;2022-12-11T12:22:29;58.60;;;54.40;;
14187;SDS011;7175;51.978;5.330;2022-12-11T12:25:12;58.70;;;54.60;;
14187;SDS011;7175;51.978;5.330;2022-12-11T12:27:47;57.30;;;53.30;;
14187;SDS011;7175;51.978;5.330;2022-12-11T12:30:21;60.03;;;55.83;;
14187;SDS011;7175;51.978;5.330;2022-12-11T12:32:56;60.00;;;55.70;;
14187;SDS011;7175;51.978;5.330;2022-12-11T12:35:33;59.70;;;55.50;;
14187;SDS011;7175;51.978;5.330;2022-12-11T12:38:05;59.27;;;55.10;;
14187;SDS011;7175;51.978;5.330;2022-12-11T12:40:39;58.03;;;53.83;;
14187;SDS011;7175;51.978;5.330;2022-12-11T12:43:29;58.70;;;54.60;;
14187;SDS011;7175;51.978;5.330;2022-12-11T12:46:13;60.00;;;55.80;;
14187;SDS011;7175;51.978;5.330;2022-12-11T12:48:54;63.37;;;58.87;;
14187;SDS011;7175;51.978;5.330;2022-12-11T12:51:25;59.97;;;55.77;;
14187;SDS011;7175;51.978;5.330;2022-12-11T12:53:54;60.67;;;56.37;;
14187;SDS011;7175;51.978;5.330;2022-12-11T12:56:26;60.57;;;56.30;;
14187;SDS011;7175;51.978;5.330;2022-12-11T12:59:00;60.77;;;56.47;;
14187;SDS011;7175;51.978;5.330;2022-12-11T13:01:30;60.33;;;56.03;;
14187;SDS011;7175;51.978;5.330;2022-12-11T13:03:59;54.83;;;50.93;;
14187;SDS011;7175;51.978;5.330;2022-12-11T13:06:30;54.30;;;50.40;;
14187;SDS011;7175;51.978;5.330;2022-12-11T13:09:09;55.27;;;51.37;;
14187;SDS011;7175;51.978;5.330;2022-12-11T13:11:42;56.87;;;52.87;;
14187;SDS011;7175;51.978;5.330;2022-12-11T13:14:22;59.00;;;54.90;;
14187;SDS011;7175;51.978;5.330;2022-12-11T13:17:05;58.63;;;54.43;;
14187;SDS011;7175;51.978;5.330;2022-12-11T13:19:49;55.87;;;51.93;;
14187;SDS011;7175;51.978;5.330;2022-12-11T13:22:30;55.20;;;51.40;;
14187;SDS011;7175;51.978;5.330;2022-12-11T13:24:59;54.23;;;50.53;;
14187;SDS011;7175;51.978;5.330;2022-12-11T13:27:35;56.87;;;52.97;;
14187;SDS011;7175;51.978;5.330;2022-12-11T13:30:06;57.60;;;53.60;;
14187;SDS011;7175;51.978;5.330;2022-12-11T13:32:53;61.10;;;56.90;;
14187;SDS011;7175;51.978;5.330;2022-12-11T13:35:28;61.37;;;56.90;;
14187;SDS011;7175;51.978;5.330;2022-12-11T13:38:00;56.90;;;52.90;;
14187;SDS011;7175;51.978;5.330;2022-12-11T13:40:34;57.03;;;53.03;;
14187;SDS011;7175;51.978;5.330;2022-12-11T13:43:07;54.70;;;50.90;;
14187;SDS011;7175;51.978;5.330;2022-12-11T13:45:45;55.93;;;52.13;;
14187;SDS011;7175;51.978;5.330;2022-12-11T13:48:19;52.93;;;49.33;;
14187;SDS011;7175;51.978;5.330;2022-12-11T13:50:50;49.87;;;46.43;;
14187;SDS011;7175;51.978;5.330;2022-12-11T13:53:20;50.87;;;47.37;;
14187;SDS011;7175;51.978;5.330;2022-12-11T13:55:55;49.90;;;46.40;;
14187;SDS011;7175;51.978;5.330;2022-12-11T13:58:24;49.03;;;45.53;;
14187;SDS011;7175;51.978;5.330;2022-12-11T14:00:54;49.90;;;45.93;;
14187;SDS011;7175;51.978;5.330;2022-12-11T14:03:32;51.50;;;47.90;;
14187;SDS011;7175;51.978;5.330;2022-12-11T14:06:01;50.93;;;47.43;;
14187;SDS011;7175;51.978;5.330;2022-12-11T14:08:31;50.17;;;46.67;;
14187;SDS011;7175;51.978;5.330;2022-12-11T14:11:01;48.77;;;45.37;;
14187;SDS011;7175;51.978;5.330;2022-12-11T14:13:31;49.23;;;45.83;;
14187;SDS011;7175;51.978;5.330;2022-12-11T14:16:02;49.50;;;46.10;;
14187;SDS011;7175;51.978;5.330;2022-12-11T14:18:34;48.77;;;45.37;;
14187;SDS011;7175;51.978;5.330;2022-12-11T14:21:04;54.20;;;50.30;;
14187;SDS011;7175;51.978;5.330;2022-12-11T14:23:35;51.27;;;47.77;;
14187;SDS011;7175;51.978;5.330;2022-12-11T14:26:12;50.70;;;47.20;;
14187;SDS011;7175;51.978;5.330;2022-12-11T14:28:43;48.83;;;45.53;;
14187;SDS011;7175;51.978;5.330;2022-12-11T14:31:12;51.17;;;47.67;;
14187;SDS011;7175;51.978;5.330;2022-12-11T14:33:45;51.30;;;47.73;;
14187;SDS011;7175;51.978;5.330;2022-12-11T14:36:17;49.10;;;45.70;;
14187;SDS011;7175;51.978;5.330;2022-12-11T14:38:48;48.37;;;44.97;;
14187;SDS011;7175;51.978;5.330;2022-12-11T14:41:22;49.77;;;46.27;;
14187;SDS011;7175;51.978;5.330;2022-12-11T14:43:56;49.10;;;45.70;;
14187;SDS011;7175;51.978;5.330;2022-12-11T14:46:30;48.97;;;45.60;;
14187;SDS011;7175;51.978;5.330;2022-12-11T14:49:05;47.53;;;44.23;;
14187;SDS011;7175;51.978;5.330;2022-12-11T14:51:39;48.00;;;44.70;;
14187;SDS011;7175;51.978;5.330;2022-12-11T14:54:10;45.83;;;42.63;;
14187;SDS011;7175;51.978;5.330;2022-12-11T14:56:46;46.77;;;43.47;;